sensor_id;sensor_type;location;lat;lon;timestamp;pressure;altitude;pressure_sealevel;temperature
70050;BMP180;57391;51.306;22.680;2023-04-15T00:00:58;98874.40;;;10.10
70050;BMP180;57391;51.306;22.680;2023-04-15T00:03:25;98872.20;;;10.10
70050;BMP180;57391;51.306;22.680;2023-04-15T00:05:52;98867.60;;;10.00
70050;BMP180;57391;51.306;22.680;2023-04-15T00:08:19;98869.40;;;10.00
70050;BMP180;57391;51.306;22.680;2023-04-15T00:10:46;98866.80;;;9.90
70050;BMP180;57391;51.306;22.680;2023-04-15T00:13:14;98868.40;;;9.90
70050;BMP180;57391;51.306;22.680;2023-04-15T00:15:41;98863.00;;;9.90
70050;BMP180;57391;51.306;22.680;2023-04-15T00:18:09;98866.60;;;9.90
70050;BMP180;57391;51.306;22.680;2023-04-15T00:20:36;98866.40;;;9.82
70050;BMP180;57391;51.306;22.680;2023-04-15T00:23:03;98862.60;;;9.80
70050;BMP180;57391;51.306;22.680;2023-04-15T00:25:31;98865.20;;;9.80
70050;BMP180;57391;51.306;22.680;2023-04-15T00:27:58;98863.80;;;9.80
70050;BMP180;57391;51.306;22.680;2023-04-15T00:30:25;98864.00;;;9.80
70050;BMP180;57391;51.306;22.680;2023-04-15T00:32:53;98870.80;;;9.70
70050;BMP180;57391;51.306;22.680;2023-04-15T00:35:21;98862.80;;;9.70
70050;BMP180;57391;51.306;22.680;2023-04-15T00:37:50;98860.60;;;9.68
70050;BMP180;57391;51.306;22.680;2023-04-15T00:40:20;98861.00;;;9.60
70050;BMP180;57391;51.306;22.680;2023-04-15T00:42:47;98861.00;;;9.60
70050;BMP180;57391;51.306;22.680;2023-04-15T00:45:14;98862.60;;;9.60
70050;BMP180;57391;51.306;22.680;2023-04-15T00:47:43;98865.60;;;9.60
70050;BMP180;57391;51.306;22.680;2023-04-15T00:50:11;98863.00;;;9.56
70050;BMP180;57391;51.306;22.680;2023-04-15T00:52:40;98866.60;;;9.50
70050;BMP180;57391;51.306;22.680;2023-04-15T00:55:08;98862.00;;;9.50
70050;BMP180;57391;51.306;22.680;2023-04-15T00:57:36;98869.20;;;9.50
70050;BMP180;57391;51.306;22.680;2023-04-15T01:00:05;98867.80;;;9.50
70050;BMP180;57391;51.306;22.680;2023-04-15T01:02:35;98873.00;;;9.50
70050;BMP180;57391;51.306;22.680;2023-04-15T01:05:03;98862.20;;;9.50
70050;BMP180;57391;51.306;22.680;2023-04-15T01:07:31;98861.60;;;9.50
70050;BMP180;57391;51.306;22.680;2023-04-15T01:09:58;98859.40;;;9.46
70050;BMP180;57391;51.306;22.680;2023-04-15T01:12:26;98864.60;;;9.42
70050;BMP180;57391;51.306;22.680;2023-04-15T01:14:54;98865.60;;;9.40
70050;BMP180;57391;51.306;22.680;2023-04-15T01:17:24;98863.20;;;9.40
70050;BMP180;57391;51.306;22.680;2023-04-15T01:19:51;98857.60;;;9.40
70050;BMP180;57391;51.306;22.680;2023-04-15T01:22:19;98857.00;;;9.40
70050;BMP180;57391;51.306;22.680;2023-04-15T01:25:05;98862.80;;;9.40
70050;BMP180;57391;51.306;22.680;2023-04-15T01:27:40;98860.40;;;9.40
70050;BMP180;57391;51.306;22.680;2023-04-15T01:30:09;98856.00;;;9.40
70050;BMP180;57391;51.306;22.680;2023-04-15T01:32:37;98853.80;;;9.40
70050;BMP180;57391;51.306;22.680;2023-04-15T01:35:04;98851.60;;;9.40
70050;BMP180;57391;51.306;22.680;2023-04-15T01:37:32;98847.00;;;9.40
70050;BMP180;57391;51.306;22.680;2023-04-15T01:39:59;98841.60;;;9.40
70050;BMP180;57391;51.306;22.680;2023-04-15T01:42:26;98853.00;;;9.40
70050;BMP180;57391;51.306;22.680;2023-04-15T01:44:54;98846.80;;;9.40
70050;BMP180;57391;51.306;22.680;2023-04-15T01:47:21;98846.60;;;9.40
70050;BMP180;57391;51.306;22.680;2023-04-15T01:49:48;98845.20;;;9.40
70050;BMP180;57391;51.306;22.680;2023-04-15T01:52:15;98843.40;;;9.40
70050;BMP180;57391;51.306;22.680;2023-04-15T01:54:43;98848.80;;;9.42
70050;BMP180;57391;51.306;22.680;2023-04-15T01:57:12;98853.80;;;9.46
70050;BMP180;57391;51.306;22.680;2023-04-15T01:59:39;98848.80;;;9.50
70050;BMP180;57391;51.306;22.680;2023-04-15T02:02:06;98851.40;;;9.50
70050;BMP180;57391;51.306;22.680;2023-04-15T02:04:34;98846.40;;;9.50
70050;BMP180;57391;51.306;22.680;2023-04-15T02:07:01;98845.80;;;9.50
70050;BMP180;57391;51.306;22.680;2023-04-15T02:09:28;98844.40;;;9.50
70050;BMP180;57391;51.306;22.680;2023-04-15T02:11:56;98840.00;;;9.50
70050;BMP180;57391;51.306;22.680;2023-04-15T02:14:24;98836.80;;;9.50
70050;BMP180;57391;51.306;22.680;2023-04-15T02:16:51;98837.00;;;9.50
70050;BMP180;57391;51.306;22.680;2023-04-15T02:19:18;98837.60;;;9.50
70050;BMP180;57391;51.306;22.680;2023-04-15T02:21:45;98836.20;;;9.52
70050;BMP180;57391;51.306;22.680;2023-04-15T02:24:12;98834.80;;;9.52
70050;BMP180;57391;51.306;22.680;2023-04-15T02:26:41;98833.20;;;9.50
70050;BMP180;57391;51.306;22.680;2023-04-15T02:29:08;98832.00;;;9.50
70050;BMP180;57391;51.306;22.680;2023-04-15T02:31:35;98836.20;;;9.50
70050;BMP180;57391;51.306;22.680;2023-04-15T02:34:06;98840.00;;;9.50
70050;BMP180;57391;51.306;22.680;2023-04-15T02:36:34;98839.20;;;9.50
70050;BMP180;57391;51.306;22.680;2023-04-15T02:39:00;98838.60;;;9.50
70050;BMP180;57391;51.306;22.680;2023-04-15T02:41:28;98838.80;;;9.50
70050;BMP180;57391;51.306;22.680;2023-04-15T02:43:56;98840.60;;;9.54
70050;BMP180;57391;51.306;22.680;2023-04-15T02:46:23;98847.80;;;9.52
70050;BMP180;57391;51.306;22.680;2023-04-15T02:48:50;98837.20;;;9.54
70050;BMP180;57391;51.306;22.680;2023-04-15T02:51:21;98835.00;;;9.52
70050;BMP180;57391;51.306;22.680;2023-04-15T02:53:49;98837.20;;;9.54
70050;BMP180;57391;51.306;22.680;2023-04-15T02:56:16;98834.20;;;9.58
70050;BMP180;57391;51.306;22.680;2023-04-15T02:58:45;98840.80;;;9.58
70050;BMP180;57391;51.306;22.680;2023-04-15T03:01:12;98833.20;;;9.56
70050;BMP180;57391;51.306;22.680;2023-04-15T03:03:40;98834.60;;;9.54
70050;BMP180;57391;51.306;22.680;2023-04-15T03:06:07;98831.80;;;9.50
70050;BMP180;57391;51.306;22.680;2023-04-15T03:08:35;98832.60;;;9.50
70050;BMP180;57391;51.306;22.680;2023-04-15T03:11:03;98833.80;;;9.50
70050;BMP180;57391;51.306;22.680;2023-04-15T03:13:31;98834.60;;;9.50
70050;BMP180;57391;51.306;22.680;2023-04-15T03:15:59;98836.20;;;9.50
70050;BMP180;57391;51.306;22.680;2023-04-15T03:18:27;98834.40;;;9.52
70050;BMP180;57391;51.306;22.680;2023-04-15T03:20:54;98830.80;;;9.52
70050;BMP180;57391;51.306;22.680;2023-04-15T03:23:22;98827.40;;;9.54
70050;BMP180;57391;51.306;22.680;2023-04-15T03:25:49;98825.80;;;9.52
70050;BMP180;57391;51.306;22.680;2023-04-15T03:28:16;98826.80;;;9.50
70050;BMP180;57391;51.306;22.680;2023-04-15T03:30:43;98832.40;;;9.50
70050;BMP180;57391;51.306;22.680;2023-04-15T03:33:10;98825.20;;;9.52
70050;BMP180;57391;51.306;22.680;2023-04-15T03:35:37;98828.40;;;9.52
70050;BMP180;57391;51.306;22.680;2023-04-15T03:38:05;98822.40;;;9.50
70050;BMP180;57391;51.306;22.680;2023-04-15T03:40:33;98828.00;;;9.50
70050;BMP180;57391;51.306;22.680;2023-04-15T03:43:00;98828.80;;;9.50
70050;BMP180;57391;51.306;22.680;2023-04-15T03:45:27;98826.60;;;9.50
70050;BMP180;57391;51.306;22.680;2023-04-15T03:47:54;98826.80;;;9.50
70050;BMP180;57391;51.306;22.680;2023-04-15T03:50:22;98827.40;;;9.50
70050;BMP180;57391;51.306;22.680;2023-04-15T03:52:49;98833.60;;;9.50
70050;BMP180;57391;51.306;22.680;2023-04-15T03:55:16;98830.20;;;9.50
70050;BMP180;57391;51.306;22.680;2023-04-15T03:57:43;98833.00;;;9.50
70050;BMP180;57391;51.306;22.680;2023-04-15T04:00:11;98834.00;;;9.50
70050;BMP180;57391;51.306;22.680;2023-04-15T04:02:41;98834.20;;;9.50
70050;BMP180;57391;51.306;22.680;2023-04-15T04:05:08;98830.80;;;9.50
70050;BMP180;57391;51.306;22.680;2023-04-15T04:07:36;98832.20;;;9.50
70050;BMP180;57391;51.306;22.680;2023-04-15T04:10:03;98826.80;;;9.50
70050;BMP180;57391;51.306;22.680;2023-04-15T04:12:30;98831.80;;;9.50
70050;BMP180;57391;51.306;22.680;2023-04-15T04:14:57;98828.60;;;9.50
70050;BMP180;57391;51.306;22.680;2023-04-15T04:17:24;98828.20;;;9.50
70050;BMP180;57391;51.306;22.680;2023-04-15T04:19:51;98834.80;;;9.50
70050;BMP180;57391;51.306;22.680;2023-04-15T04:22:22;98827.80;;;9.50
70050;BMP180;57391;51.306;22.680;2023-04-15T04:24:52;98830.20;;;9.50
70050;BMP180;57391;51.306;22.680;2023-04-15T04:27:19;98828.20;;;9.50
70050;BMP180;57391;51.306;22.680;2023-04-15T04:29:46;98829.40;;;9.50
70050;BMP180;57391;51.306;22.680;2023-04-15T04:32:15;98829.60;;;9.52
70050;BMP180;57391;51.306;22.680;2023-04-15T04:34:43;98831.00;;;9.54
70050;BMP180;57391;51.306;22.680;2023-04-15T04:37:10;98826.20;;;9.60
70050;BMP180;57391;51.306;22.680;2023-04-15T04:39:37;98818.00;;;9.52
70050;BMP180;57391;51.306;22.680;2023-04-15T04:42:04;98824.60;;;9.58
70050;BMP180;57391;51.306;22.680;2023-04-15T04:44:31;98822.60;;;9.60
70050;BMP180;57391;51.306;22.680;2023-04-15T04:46:59;98827.40;;;9.60
70050;BMP180;57391;51.306;22.680;2023-04-15T04:49:26;98822.00;;;9.60
70050;BMP180;57391;51.306;22.680;2023-04-15T04:51:53;98824.40;;;9.60
70050;BMP180;57391;51.306;22.680;2023-04-15T04:54:21;98819.20;;;9.60
70050;BMP180;57391;51.306;22.680;2023-04-15T04:56:48;98821.80;;;9.60
70050;BMP180;57391;51.306;22.680;2023-04-15T04:59:15;98821.40;;;9.60
70050;BMP180;57391;51.306;22.680;2023-04-15T05:01:43;98823.20;;;9.60
70050;BMP180;57391;51.306;22.680;2023-04-15T05:04:10;98830.60;;;9.60
70050;BMP180;57391;51.306;22.680;2023-04-15T05:06:37;98829.40;;;9.60
70050;BMP180;57391;51.306;22.680;2023-04-15T05:09:04;98831.80;;;9.60
70050;BMP180;57391;51.306;22.680;2023-04-15T05:11:31;98835.00;;;9.60
70050;BMP180;57391;51.306;22.680;2023-04-15T05:13:59;98832.20;;;9.60
70050;BMP180;57391;51.306;22.680;2023-04-15T05:16:28;98831.60;;;9.60
70050;BMP180;57391;51.306;22.680;2023-04-15T05:18:55;98838.00;;;9.60
70050;BMP180;57391;51.306;22.680;2023-04-15T05:21:22;98839.60;;;9.60
70050;BMP180;57391;51.306;22.680;2023-04-15T05:23:49;98839.00;;;9.60
70050;BMP180;57391;51.306;22.680;2023-04-15T05:26:17;98837.60;;;9.60
70050;BMP180;57391;51.306;22.680;2023-04-15T05:28:44;98846.80;;;9.60
70050;BMP180;57391;51.306;22.680;2023-04-15T05:31:12;98844.60;;;9.60
70050;BMP180;57391;51.306;22.680;2023-04-15T05:33:39;98843.60;;;9.60
70050;BMP180;57391;51.306;22.680;2023-04-15T05:36:06;98845.00;;;9.60
70050;BMP180;57391;51.306;22.680;2023-04-15T05:38:34;98843.40;;;9.60
70050;BMP180;57391;51.306;22.680;2023-04-15T05:41:02;98843.60;;;9.60
70050;BMP180;57391;51.306;22.680;2023-04-15T05:43:29;98845.00;;;9.60
70050;BMP180;57391;51.306;22.680;2023-04-15T05:45:57;98843.00;;;9.60
70050;BMP180;57391;51.306;22.680;2023-04-15T05:48:24;98845.40;;;9.70
70050;BMP180;57391;51.306;22.680;2023-04-15T05:50:52;98842.80;;;9.70
70050;BMP180;57391;51.306;22.680;2023-04-15T05:53:20;98843.60;;;9.70
70050;BMP180;57391;51.306;22.680;2023-04-15T05:55:47;98845.20;;;9.70
70050;BMP180;57391;51.306;22.680;2023-04-15T05:58:14;98849.00;;;9.70
70050;BMP180;57391;51.306;22.680;2023-04-15T06:00:42;98848.00;;;9.70
70050;BMP180;57391;51.306;22.680;2023-04-15T06:03:10;98852.40;;;9.70
70050;BMP180;57391;51.306;22.680;2023-04-15T06:05:37;98856.80;;;9.70
70050;BMP180;57391;51.306;22.680;2023-04-15T06:08:05;98854.60;;;9.70
70050;BMP180;57391;51.306;22.680;2023-04-15T06:10:34;98854.80;;;9.70
70050;BMP180;57391;51.306;22.680;2023-04-15T06:13:03;98852.60;;;9.70
70050;BMP180;57391;51.306;22.680;2023-04-15T06:15:30;98852.60;;;9.70
70050;BMP180;57391;51.306;22.680;2023-04-15T06:18:04;98855.60;;;9.70
70050;BMP180;57391;51.306;22.680;2023-04-15T06:20:31;98851.80;;;9.70
70050;BMP180;57391;51.306;22.680;2023-04-15T06:22:59;98855.20;;;9.76
70050;BMP180;57391;51.306;22.680;2023-04-15T06:25:26;98854.60;;;9.80
70050;BMP180;57391;51.306;22.680;2023-04-15T06:27:53;98859.20;;;9.78
70050;BMP180;57391;51.306;22.680;2023-04-15T06:30:21;98858.60;;;9.80
70050;BMP180;57391;51.306;22.680;2023-04-15T06:32:49;98862.80;;;9.80
70050;BMP180;57391;51.306;22.680;2023-04-15T06:35:16;98861.20;;;9.88
70050;BMP180;57391;51.306;22.680;2023-04-15T06:37:43;98862.20;;;10.00
70050;BMP180;57391;51.306;22.680;2023-04-15T06:40:11;98860.80;;;10.00
70050;BMP180;57391;51.306;22.680;2023-04-15T06:42:38;98860.00;;;9.90
70050;BMP180;57391;51.306;22.680;2023-04-15T06:45:07;98862.60;;;9.90
70050;BMP180;57391;51.306;22.680;2023-04-15T06:47:34;98863.20;;;9.90
70050;BMP180;57391;51.306;22.680;2023-04-15T06:50:02;98861.40;;;9.90
70050;BMP180;57391;51.306;22.680;2023-04-15T06:52:30;98862.20;;;9.90
70050;BMP180;57391;51.306;22.680;2023-04-15T06:54:57;98862.60;;;9.90
70050;BMP180;57391;51.306;22.680;2023-04-15T06:57:25;98869.00;;;9.90
70050;BMP180;57391;51.306;22.680;2023-04-15T06:59:52;98873.60;;;9.90
70050;BMP180;57391;51.306;22.680;2023-04-15T07:02:20;98872.00;;;9.90
70050;BMP180;57391;51.306;22.680;2023-04-15T07:04:47;98882.40;;;9.90
70050;BMP180;57391;51.306;22.680;2023-04-15T07:07:15;98877.00;;;9.90
70050;BMP180;57391;51.306;22.680;2023-04-15T07:09:43;98879.00;;;9.90
70050;BMP180;57391;51.306;22.680;2023-04-15T07:12:11;98883.60;;;9.90
70050;BMP180;57391;51.306;22.680;2023-04-15T07:14:38;98890.00;;;9.92
70050;BMP180;57391;51.306;22.680;2023-04-15T07:17:05;98884.40;;;9.98
70050;BMP180;57391;51.306;22.680;2023-04-15T07:19:32;98890.40;;;10.00
70050;BMP180;57391;51.306;22.680;2023-04-15T07:22:00;98893.40;;;10.00
70050;BMP180;57391;51.306;22.680;2023-04-15T07:24:27;98894.60;;;10.00
70050;BMP180;57391;51.306;22.680;2023-04-15T07:26:55;98899.60;;;10.04
70050;BMP180;57391;51.306;22.680;2023-04-15T07:29:26;98908.80;;;10.10
70050;BMP180;57391;51.306;22.680;2023-04-15T07:31:55;98903.20;;;10.10
70050;BMP180;57391;51.306;22.680;2023-04-15T07:34:23;98905.20;;;10.16
70050;BMP180;57391;51.306;22.680;2023-04-15T07:36:54;98916.20;;;10.20
70050;BMP180;57391;51.306;22.680;2023-04-15T07:39:22;98914.40;;;10.20
70050;BMP180;57391;51.306;22.680;2023-04-15T07:41:53;98904.80;;;10.30
70050;BMP180;57391;51.306;22.680;2023-04-15T07:44:21;98907.00;;;10.34
70050;BMP180;57391;51.306;22.680;2023-04-15T07:46:48;98908.60;;;10.40
70050;BMP180;57391;51.306;22.680;2023-04-15T07:49:16;98910.40;;;10.50
70050;BMP180;57391;51.306;22.680;2023-04-15T07:51:45;98913.00;;;10.58
70050;BMP180;57391;51.306;22.680;2023-04-15T07:54:12;98919.60;;;10.60
70050;BMP180;57391;51.306;22.680;2023-04-15T07:56:40;98925.00;;;10.70
70050;BMP180;57391;51.306;22.680;2023-04-15T07:59:08;98922.80;;;10.76
70050;BMP180;57391;51.306;22.680;2023-04-15T08:01:36;98924.00;;;10.80
70050;BMP180;57391;51.306;22.680;2023-04-15T08:04:03;98927.20;;;10.84
70050;BMP180;57391;51.306;22.680;2023-04-15T08:06:31;98926.60;;;10.90
70050;BMP180;57391;51.306;22.680;2023-04-15T08:08:59;98935.40;;;11.00
70050;BMP180;57391;51.306;22.680;2023-04-15T08:11:26;98940.00;;;11.00
70050;BMP180;57391;51.306;22.680;2023-04-15T08:13:54;98944.20;;;11.00
70050;BMP180;57391;51.306;22.680;2023-04-15T08:16:25;98945.00;;;11.08
70050;BMP180;57391;51.306;22.680;2023-04-15T08:18:56;98951.00;;;11.10
70050;BMP180;57391;51.306;22.680;2023-04-15T08:21:24;98952.80;;;11.10
70050;BMP180;57391;51.306;22.680;2023-04-15T08:23:52;98957.40;;;11.10
70050;BMP180;57391;51.306;22.680;2023-04-15T08:26:20;98954.20;;;11.10
70050;BMP180;57391;51.306;22.680;2023-04-15T08:28:48;98957.20;;;11.10
70050;BMP180;57391;51.306;22.680;2023-04-15T08:31:17;98966.40;;;11.20
70050;BMP180;57391;51.306;22.680;2023-04-15T08:33:45;98963.40;;;11.20
70050;BMP180;57391;51.306;22.680;2023-04-15T08:36:12;98969.20;;;11.20
70050;BMP180;57391;51.306;22.680;2023-04-15T08:38:39;98971.60;;;11.20
70050;BMP180;57391;51.306;22.680;2023-04-15T08:41:19;98978.20;;;11.20
70050;BMP180;57391;51.306;22.680;2023-04-15T08:43:56;98975.60;;;11.20
70050;BMP180;57391;51.306;22.680;2023-04-15T08:46:25;98979.40;;;11.20
70050;BMP180;57391;51.306;22.680;2023-04-15T08:48:57;98976.80;;;11.20
70050;BMP180;57391;51.306;22.680;2023-04-15T08:51:26;98981.20;;;11.26
70050;BMP180;57391;51.306;22.680;2023-04-15T08:53:54;98981.80;;;11.30
70050;BMP180;57391;51.306;22.680;2023-04-15T08:56:24;98986.00;;;11.30
70050;BMP180;57391;51.306;22.680;2023-04-15T08:58:55;98988.00;;;11.40
70050;BMP180;57391;51.306;22.680;2023-04-15T09:01:23;98985.80;;;11.40
70050;BMP180;57391;51.306;22.680;2023-04-15T09:03:52;98989.60;;;11.40
70050;BMP180;57391;51.306;22.680;2023-04-15T09:06:24;98994.40;;;11.40
70050;BMP180;57391;51.306;22.680;2023-04-15T09:08:52;98996.20;;;11.40
70050;BMP180;57391;51.306;22.680;2023-04-15T09:11:21;99000.60;;;11.40
70050;BMP180;57391;51.306;22.680;2023-04-15T09:13:49;99000.60;;;11.30
70050;BMP180;57391;51.306;22.680;2023-04-15T09:16:17;99001.60;;;11.30
70050;BMP180;57391;51.306;22.680;2023-04-15T09:18:44;98999.80;;;11.30
70050;BMP180;57391;51.306;22.680;2023-04-15T09:21:15;98998.60;;;11.30
70050;BMP180;57391;51.306;22.680;2023-04-15T09:23:58;98998.60;;;11.30
70050;BMP180;57391;51.306;22.680;2023-04-15T09:26:35;99003.20;;;11.30
70050;BMP180;57391;51.306;22.680;2023-04-15T09:29:10;99007.60;;;11.30
70050;BMP180;57391;51.306;22.680;2023-04-15T09:31:41;99005.60;;;11.30
70050;BMP180;57391;51.306;22.680;2023-04-15T09:34:09;99003.20;;;11.28
70050;BMP180;57391;51.306;22.680;2023-04-15T09:39:13;99007.60;;;11.20
70050;BMP180;57391;51.306;22.680;2023-04-15T09:41:40;99010.20;;;11.20
70050;BMP180;57391;51.306;22.680;2023-04-15T09:44:22;99012.40;;;11.20
70050;BMP180;57391;51.306;22.680;2023-04-15T09:46:50;99016.40;;;11.20
70050;BMP180;57391;51.306;22.680;2023-04-15T09:49:17;99016.80;;;11.30
70050;BMP180;57391;51.306;22.680;2023-04-15T09:51:46;99017.20;;;11.30
70050;BMP180;57391;51.306;22.680;2023-04-15T09:54:18;99020.80;;;11.30
70050;BMP180;57391;51.306;22.680;2023-04-15T09:56:48;99021.80;;;11.30
70050;BMP180;57391;51.306;22.680;2023-04-15T09:59:16;99026.00;;;11.30
70050;BMP180;57391;51.306;22.680;2023-04-15T10:01:44;99027.40;;;11.40
70050;BMP180;57391;51.306;22.680;2023-04-15T10:04:12;99030.40;;;11.40
70050;BMP180;57391;51.306;22.680;2023-04-15T10:06:40;99027.40;;;11.40
70050;BMP180;57391;51.306;22.680;2023-04-15T10:09:08;99027.40;;;11.40
70050;BMP180;57391;51.306;22.680;2023-04-15T10:11:35;99025.60;;;11.50
70050;BMP180;57391;51.306;22.680;2023-04-15T10:14:04;99025.80;;;11.50
70050;BMP180;57391;51.306;22.680;2023-04-15T10:16:35;99017.00;;;11.50
70050;BMP180;57391;51.306;22.680;2023-04-15T10:19:07;99022.60;;;11.50
70050;BMP180;57391;51.306;22.680;2023-04-15T10:21:36;99021.00;;;11.46
70050;BMP180;57391;51.306;22.680;2023-04-15T10:24:05;99023.20;;;11.50
70050;BMP180;57391;51.306;22.680;2023-04-15T10:26:33;99027.00;;;11.50
70050;BMP180;57391;51.306;22.680;2023-04-15T10:29:02;99028.00;;;11.60
70050;BMP180;57391;51.306;22.680;2023-04-15T10:31:30;99025.80;;;11.70
70050;BMP180;57391;51.306;22.680;2023-04-15T10:33:58;99023.00;;;11.80
70050;BMP180;57391;51.306;22.680;2023-04-15T10:36:30;99021.60;;;11.80
70050;BMP180;57391;51.306;22.680;2023-04-15T10:38:57;99019.40;;;11.90
70050;BMP180;57391;51.306;22.680;2023-04-15T10:41:27;99016.60;;;11.90
70050;BMP180;57391;51.306;22.680;2023-04-15T10:44:02;99016.80;;;11.94
70050;BMP180;57391;51.306;22.680;2023-04-15T10:46:43;99015.40;;;12.00
70050;BMP180;57391;51.306;22.680;2023-04-15T10:49:19;99016.40;;;12.10
70050;BMP180;57391;51.306;22.680;2023-04-15T10:51:57;99016.00;;;12.20
70050;BMP180;57391;51.306;22.680;2023-04-15T10:57:21;99014.80;;;12.40
70050;BMP180;57391;51.306;22.680;2023-04-15T11:02:57;99006.20;;;12.58
70050;BMP180;57391;51.306;22.680;2023-04-15T11:08:12;99011.20;;;12.74
70050;BMP180;57391;51.306;22.680;2023-04-15T11:15:38;99006.40;;;12.82
70050;BMP180;57391;51.306;22.680;2023-04-15T11:20:39;99000.20;;;13.00
70050;BMP180;57391;51.306;22.680;2023-04-15T11:23:08;98994.40;;;13.10
70050;BMP180;57391;51.306;22.680;2023-04-15T11:25:36;99001.20;;;13.20
70050;BMP180;57391;51.306;22.680;2023-04-15T11:28:04;99013.60;;;13.20
70050;BMP180;57391;51.306;22.680;2023-04-15T11:30:36;99014.60;;;13.20
70050;BMP180;57391;51.306;22.680;2023-04-15T11:33:10;99016.80;;;13.30
70050;BMP180;57391;51.306;22.680;2023-04-15T11:35:40;99025.40;;;13.40
70050;BMP180;57391;51.306;22.680;2023-04-15T11:38:12;99029.40;;;13.50
70050;BMP180;57391;51.306;22.680;2023-04-15T11:40:42;99030.20;;;13.50
70050;BMP180;57391;51.306;22.680;2023-04-15T11:43:09;99031.00;;;13.60
70050;BMP180;57391;51.306;22.680;2023-04-15T11:48:34;99037.80;;;13.70
70050;BMP180;57391;51.306;22.680;2023-04-15T11:51:06;99033.60;;;13.62
70050;BMP180;57391;51.306;22.680;2023-04-15T11:53:48;99037.40;;;13.60
70050;BMP180;57391;51.306;22.680;2023-04-15T11:56:24;99035.20;;;13.50
70050;BMP180;57391;51.306;22.680;2023-04-15T11:58:56;99041.20;;;13.50
70050;BMP180;57391;51.306;22.680;2023-04-15T12:01:37;99040.60;;;13.38
70050;BMP180;57391;51.306;22.680;2023-04-15T12:04:16;99044.80;;;13.30
70050;BMP180;57391;51.306;22.680;2023-04-15T12:06:44;99048.00;;;13.20
70050;BMP180;57391;51.306;22.680;2023-04-15T12:09:14;99048.40;;;13.00
70050;BMP180;57391;51.306;22.680;2023-04-15T12:11:56;99043.60;;;12.92
70050;BMP180;57391;51.306;22.680;2023-04-15T12:14:27;99051.80;;;12.96
70050;BMP180;57391;51.306;22.680;2023-04-15T12:17:00;99043.80;;;12.90
70050;BMP180;57391;51.306;22.680;2023-04-15T12:19:37;99046.40;;;12.80
70050;BMP180;57391;51.306;22.680;2023-04-15T12:22:10;99054.00;;;12.86
70050;BMP180;57391;51.306;22.680;2023-04-15T12:24:38;99063.40;;;12.80
70050;BMP180;57391;51.306;22.680;2023-04-15T12:27:08;99065.40;;;12.82
70050;BMP180;57391;51.306;22.680;2023-04-15T12:29:38;99067.60;;;13.00
70050;BMP180;57391;51.306;22.680;2023-04-15T12:32:07;99070.60;;;13.10
70050;BMP180;57391;51.306;22.680;2023-04-15T12:34:38;99074.00;;;13.10
70050;BMP180;57391;51.306;22.680;2023-04-15T12:37:11;99078.20;;;13.10
70050;BMP180;57391;51.306;22.680;2023-04-15T12:39:41;99071.40;;;13.10
70050;BMP180;57391;51.306;22.680;2023-04-15T12:42:10;99073.80;;;13.10
70050;BMP180;57391;51.306;22.680;2023-04-15T12:44:38;99067.80;;;13.12
70050;BMP180;57391;51.306;22.680;2023-04-15T12:47:07;99063.20;;;13.12
70050;BMP180;57391;51.306;22.680;2023-04-15T12:49:35;99057.20;;;13.20
70050;BMP180;57391;51.306;22.680;2023-04-15T12:52:03;99058.20;;;13.20
70050;BMP180;57391;51.306;22.680;2023-04-15T12:54:31;99060.60;;;13.30
70050;BMP180;57391;51.306;22.680;2023-04-15T12:56:59;99059.60;;;13.40
70050;BMP180;57391;51.306;22.680;2023-04-15T12:59:27;99062.00;;;13.46
70050;BMP180;57391;51.306;22.680;2023-04-15T13:01:54;99062.80;;;13.40
70050;BMP180;57391;51.306;22.680;2023-04-15T13:04:22;99061.20;;;13.50
70050;BMP180;57391;51.306;22.680;2023-04-15T13:06:49;99067.80;;;13.58
70050;BMP180;57391;51.306;22.680;2023-04-15T13:09:17;99069.60;;;13.66
70050;BMP180;57391;51.306;22.680;2023-04-15T13:11:44;99067.20;;;13.80
70050;BMP180;57391;51.306;22.680;2023-04-15T13:14:12;99075.20;;;13.90
70050;BMP180;57391;51.306;22.680;2023-04-15T13:16:40;99069.80;;;13.80
70050;BMP180;57391;51.306;22.680;2023-04-15T13:19:07;99072.20;;;13.62
70050;BMP180;57391;51.306;22.680;2023-04-15T13:21:34;99063.00;;;13.60
70050;BMP180;57391;51.306;22.680;2023-04-15T13:24:03;99069.20;;;13.60
70050;BMP180;57391;51.306;22.680;2023-04-15T13:26:30;99066.60;;;13.50
70050;BMP180;57391;51.306;22.680;2023-04-15T13:28:58;99073.80;;;13.40
70050;BMP180;57391;51.306;22.680;2023-04-15T13:31:26;99082.60;;;13.30
70050;BMP180;57391;51.306;22.680;2023-04-15T13:33:53;99089.20;;;13.24
70050;BMP180;57391;51.306;22.680;2023-04-15T13:36:20;99103.80;;;13.20
70050;BMP180;57391;51.306;22.680;2023-04-15T13:38:48;99101.40;;;13.10
70050;BMP180;57391;51.306;22.680;2023-04-15T13:41:15;99107.60;;;13.00
70050;BMP180;57391;51.306;22.680;2023-04-15T13:43:43;99108.80;;;12.90
70050;BMP180;57391;51.306;22.680;2023-04-15T13:46:10;99114.80;;;12.90
70050;BMP180;57391;51.306;22.680;2023-04-15T13:48:37;99110.40;;;12.90
70050;BMP180;57391;51.306;22.680;2023-04-15T13:51:05;99118.00;;;12.90
70050;BMP180;57391;51.306;22.680;2023-04-15T13:53:32;99124.00;;;12.80
70050;BMP180;57391;51.306;22.680;2023-04-15T13:56:00;99122.40;;;12.80
70050;BMP180;57391;51.306;22.680;2023-04-15T13:58:27;99125.60;;;12.90
70050;BMP180;57391;51.306;22.680;2023-04-15T14:00:53;99130.20;;;13.00
70050;BMP180;57391;51.306;22.680;2023-04-15T14:03:24;99134.80;;;12.90
70050;BMP180;57391;51.306;22.680;2023-04-15T14:05:52;99137.80;;;12.80
70050;BMP180;57391;51.306;22.680;2023-04-15T14:08:23;99133.40;;;12.70
70050;BMP180;57391;51.306;22.680;2023-04-15T14:10:51;99125.60;;;12.60
70050;BMP180;57391;51.306;22.680;2023-04-15T14:13:18;99127.00;;;12.60
70050;BMP180;57391;51.306;22.680;2023-04-15T14:15:56;99128.60;;;12.66
70050;BMP180;57391;51.306;22.680;2023-04-15T14:18:24;99133.20;;;12.80
70050;BMP180;57391;51.306;22.680;2023-04-15T14:20:52;99138.40;;;12.90
70050;BMP180;57391;51.306;22.680;2023-04-15T14:23:19;99135.80;;;12.86
70050;BMP180;57391;51.306;22.680;2023-04-15T14:25:46;99150.80;;;12.80
70050;BMP180;57391;51.306;22.680;2023-04-15T14:28:14;99135.80;;;12.70
70050;BMP180;57391;51.306;22.680;2023-04-15T14:30:41;99123.20;;;12.60